This is the latest recevied weather packets stored in our database for station/object DH5WR-10. If no packets are shown the sender has not sent any weather packets the latest 10 day(s).
| Time | Temp. | Humidity | Pressure | Rain* | Wind** | Luminosity | Snow |
|---|---|---|---|---|---|---|---|
| 1777283534 | 16.67° C | 35% | 1022.4 hPa | - | - | - | - |
| 1777282634 | 17.22° C | 35% | 1022.3 hPa | - | - | - | - |
| 1777281734 | 16.67° C | 36% | 1022.5 hPa | - | - | - | - |
| 1777280833 | 15.56° C | 38% | 1022.7 hPa | - | - | - | - |
| 1777279933 | 15.56° C | 38% | 1022.8 hPa | - | - | - | - |
| 1777279033 | 15° C | 40% | 1022.7 hPa | - | - | - | - |
| 1777278133 | 14.44° C | 41% | 1022.8 hPa | - | - | - | - |
| 1777277233 | 13.89° C | 41% | 1022.8 hPa | - | - | - | - |
| 1777276333 | 14.44° C | 42% | 1022.7 hPa | - | - | - | - |
| 1777275432 | 12.22° C | 44% | 1022.7 hPa | - | - | - | - |
| 1777274532 | 11.67° C | 47% | 1022.8 hPa | - | - | - | - |
| 1777273632 | 11.67° C | 47% | 1022.8 hPa | - | - | - | - |
| 1777272732 | 12.22° C | 45% | 1022.8 hPa | - | - | - | - |
| 1777271832 | 14.44° C | 42% | 1022.7 hPa | - | - | - | - |
| 1777270932 | 11.11° C | 48% | 1022.7 hPa | - | - | - | - |
| 1777270032 | 12.78° C | 44% | 1022.6 hPa | - | - | - | - |
| 1777269132 | 11.67° C | 47% | 1022.8 hPa | - | - | - | - |
| 1777268231 | 7.78° C | 60% | 1022.7 hPa | - | - | - | - |
| 1777267348 | 7.22° C | 62% | 1022.7 hPa | - | - | - | - |
| 1777266447 | 6.11° C | 64% | 1022.7 hPa | - | - | - | - |
* Rain since midnight (hover to see other rain measurements)
** Current wind speed in m/s (hover to see current wind gust speed)